Time;durP1;ratioP1;P1;durP2;ratioP2;P2;SDS_P1;SDS_P2;PMS_P1;PMS_P2;Temp;Humidity;BMP_temperature;BMP_pressure;BME280_temperature;BME280_humidity;BME280_pressure;Samples;Min_cycle;Max_cycle;Signal;HPM_P1;HPM_P2
2022/07/27 00:01:15;;;;;;;;;;;13.10;99.90;;;;;;5034300;28;19917;-81
2022/07/27 00:03:40;;;;;;;;;;;13.00;99.90;;;;;;5036067;28;19913;-82
2022/07/27 00:06:06;;;;;;;;;;;13.00;99.90;;;;;;5035058;28;19913;-81
2022/07/27 00:08:32;;;;;;;;;;;13.10;99.90;;;;;;5038441;28;20339;-82
2022/07/27 00:10:57;;;;;;;;;;;13.00;99.90;;;;;;5024242;28;19921;-81
2022/07/27 00:13:23;;;;;;;;;;;13.00;99.90;;;;;;5035484;28;20293;-82
2022/07/27 00:15:48;;;;;;;;;;;12.90;99.90;;;;;;5037491;28;20282;-81
2022/07/27 00:18:14;;;;;;;;;;;12.80;99.90;;;;;;5033106;28;19918;-81
2022/07/27 00:20:40;;;;;;;;;;;12.70;99.90;;;;;;5036354;28;19924;-83
2022/07/27 00:23:06;;;;;;;;;;;12.70;99.90;;;;;;5036886;28;19913;-84
2022/07/27 00:25:31;;;;;;;;;;;12.60;99.90;;;;;;5037314;28;19913;-83
2022/07/27 00:27:57;;;;;;;;;;;12.50;99.90;;;;;;5027914;28;19909;-80
2022/07/27 00:30:23;;;;;;;;;;;12.50;99.90;;;;;;5038002;28;19917;-82
2022/07/27 00:32:49;;;;;;;;;;;12.50;99.90;;;;;;5035003;28;19923;-85
2022/07/27 00:35:15;;;;;;;;;;;12.50;99.90;;;;;;5037262;28;19921;-84
2022/07/27 00:37:40;;;;;;;;;;;12.50;99.90;;;;;;5034747;28;19916;-83
2022/07/27 00:40:06;;;;;;;;;;;12.50;99.90;;;;;;5035095;28;19960;-83
2022/07/27 00:42:32;;;;;;;;;;;12.50;99.90;;;;;;5040125;28;19913;-83
2022/07/27 00:44:58;;;;;;;;;;;12.50;99.90;;;;;;5036701;28;19967;-83
2022/07/27 00:47:23;;;;;;;;;;;12.50;99.90;;;;;;5035856;28;19916;-81
2022/07/27 00:49:49;;;;;;;;;;;12.50;99.90;;;;;;5029586;28;19917;-83
2022/07/27 00:52:15;;;;;;;;;;;12.50;99.90;;;;;;5035823;28;20007;-81
2022/07/27 00:54:41;;;;;;;;;;;12.60;99.90;;;;;;5036086;28;19913;-84
2022/07/27 00:57:08;;;;;;;;;;;12.60;99.90;;;;;;5037094;28;19967;-83
2022/07/27 00:59:34;;;;;;;;;;;12.60;99.90;;;;;;5034796;28;19913;-84
2022/07/27 01:02:00;;;;;;;;;;;12.50;99.90;;;;;;5030077;28;20244;-82
2022/07/27 01:04:25;;;;;;;;;;;12.50;99.90;;;;;;5035975;28;19929;-82
2022/07/27 01:06:51;;;;;;;;;;;12.50;99.90;;;;;;5036747;28;20012;-82
2022/07/27 01:12:00;;;;;;;;;;;12.60;99.90;;;;;;5034934;28;19924;-81
2022/07/27 01:14:26;;;;;;;;;;;12.60;99.90;;;;;;5034656;28;19917;-81
2022/07/27 01:16:51;;;;;;;;;;;12.70;99.90;;;;;;5036669;28;20055;-82
2022/07/27 01:19:17;;;;;;;;;;;12.70;99.90;;;;;;5032522;28;19918;-82
2022/07/27 01:21:43;;;;;;;;;;;12.80;99.90;;;;;;5033783;28;20239;-82
2022/07/27 01:24:09;;;;;;;;;;;12.70;99.90;;;;;;5035938;28;19952;-79
2022/07/27 01:26:37;;;;;;;;;;;12.70;99.90;;;;;;5035543;28;19916;-79
2022/07/27 01:29:03;;;;;;;;;;;12.80;99.90;;;;;;5032954;28;19928;-78
2022/07/27 01:31:29;;;;;;;;;;;12.80;99.90;;;;;;5034366;28;19916;-79
2022/07/27 01:33:55;;;;;;;;;;;12.80;99.90;;;;;;5035924;28;19952;-79
2022/07/27 01:36:20;;;;;;;;;;;12.80;99.90;;;;;;5034447;28;20003;-79
2022/07/27 01:38:46;;;;;;;;;;;12.90;99.90;;;;;;5036502;28;19913;-80
2022/07/27 01:41:11;;;;;;;;;;;12.90;99.90;;;;;;5034484;28;20305;-79
2022/07/27 01:43:37;;;;;;;;;;;12.90;99.90;;;;;;5035682;28;19916;-79
2022/07/27 01:46:03;;;;;;;;;;;13.00;99.90;;;;;;5034611;28;20279;-79
2022/07/27 01:48:28;;;;;;;;;;;13.00;99.90;;;;;;5035036;28;19913;-79
2022/07/27 01:50:54;;;;;;;;;;;13.00;99.90;;;;;;5033818;28;20003;-80
2022/07/27 01:53:20;;;;;;;;;;;13.10;99.90;;;;;;5033399;28;19917;-78
2022/07/27 01:55:46;;;;;;;;;;;13.10;99.90;;;;;;5036385;28;19916;-80
2022/07/27 01:58:12;;;;;;;;;;;13.20;99.90;;;;;;5034934;28;19909;-79
2022/07/27 02:00:38;;;;;;;;;;;13.20;99.90;;;;;;5035344;28;19914;-80
2022/07/27 02:03:05;;;;;;;;;;;13.20;99.90;;;;;;5034554;28;19913;-80
2022/07/27 02:05:31;;;;;;;;;;;13.30;99.90;;;;;;5034569;28;19909;-78
2022/07/27 02:07:57;;;;;;;;;;;13.30;99.90;;;;;;5034518;28;20004;-79
2022/07/27 02:10:22;;;;;;;;;;;13.30;99.90;;;;;;5033818;28;19936;-79
2022/07/27 02:12:49;;;;;;;;;;;13.30;99.90;;;;;;5025905;28;19910;-79
2022/07/27 02:15:16;;;;;;;;;;;13.30;99.90;;;;;;5048161;28;19977;-80
2022/07/27 02:17:42;;;;;;;;;;;13.20;99.90;;;;;;5034769;28;19913;-79
2022/07/27 02:20:09;;;;;;;;;;;13.10;99.90;;;;;;5035341;28;19913;-79
2022/07/27 02:22:34;;;;;;;;;;;13.10;99.90;;;;;;5033024;28;20296;-78
2022/07/27 02:25:00;;;;;;;;;;;13.10;99.90;;;;;;5035224;28;19917;-79
2022/07/27 02:27:25;;;;;;;;;;;13.10;99.90;;;;;;5035135;28;19919;-79
2022/07/27 02:29:52;;;;;;;;;;;13.10;99.90;;;;;;5034081;28;20316;-80
2022/07/27 02:32:18;;;;;;;;;;;13.20;99.90;;;;;;5029092;28;19917;-80
2022/07/27 02:34:43;;;;;;;;;;;13.30;99.90;;;;;;5033835;28;19971;-80
2022/07/27 02:37:09;;;;;;;;;;;13.30;99.90;;;;;;5034521;28;19909;-81
2022/07/27 02:39:35;;;;;;;;;;;13.30;99.90;;;;;;5033195;28;20044;-82
2022/07/27 02:42:01;;;;;;;;;;;13.30;99.90;;;;;;5033804;28;19909;-78
2022/07/27 02:44:27;;;;;;;;;;;13.30;99.90;;;;;;5048495;28;20219;-78
2022/07/27 02:46:53;;;;;;;;;;;13.30;99.90;;;;;;5035692;28;19909;-79
2022/07/27 02:49:18;;;;;;;;;;;13.30;99.90;;;;;;5032651;28;19966;-79
2022/07/27 02:51:44;;;;;;;;;;;13.50;99.90;;;;;;5032234;28;19917;-79
2022/07/27 02:54:09;;;;;;;;;;;13.50;99.90;;;;;;5034187;28;20068;-79
2022/07/27 02:56:35;;;;;;;;;;;13.50;99.90;;;;;;5034555;28;19924;-78
2022/07/27 02:59:00;;;;;;;;;;;13.60;99.90;;;;;;5034061;28;19910;-79
2022/07/27 03:01:26;;;;;;;;;;;13.60;99.90;;;;;;5033473;28;19917;-78
2022/07/27 03:03:52;;;;;;;;;;;13.70;99.90;;;;;;5032083;28;19913;-78
2022/07/27 03:06:17;;;;;;;;;;;13.70;99.90;;;;;;5035423;28;19916;-79
2022/07/27 03:08:43;;;;;;;;;;;13.70;99.90;;;;;;5034811;28;19920;-79
2022/07/27 03:11:08;;;;;;;;;;;13.70;99.90;;;;;;5033900;28;19917;-79
2022/07/27 03:13:34;;;;;;;;;;;13.70;99.90;;;;;;5033160;28;20308;-78
2022/07/27 03:16:00;;;;;;;;;;;13.70;99.90;;;;;;5033939;28;19931;-80
2022/07/27 03:18:26;;;;;;;;;;;13.70;99.90;;;;;;5029847;28;19946;-78
2022/07/27 03:20:51;;;;;;;;;;;13.70;99.90;;;;;;5033768;28;20316;-79
2022/07/27 03:23:17;;;;;;;;;;;13.80;99.90;;;;;;5034030;28;20201;-78
2022/07/27 03:25:42;;;;;;;;;;;13.80;99.90;;;;;;5032707;28;19913;-79
2022/07/27 03:28:08;;;;;;;;;;;13.70;99.90;;;;;;5025652;28;20287;-79
2022/07/27 03:30:34;;;;;;;;;;;13.70;99.90;;;;;;5032888;28;20208;-78
2022/07/27 03:32:59;;;;;;;;;;;13.70;99.90;;;;;;5034979;28;20334;-78
2022/07/27 03:35:25;;;;;;;;;;;13.70;99.90;;;;;;5022557;28;19928;-79
2022/07/27 03:37:51;;;;;;;;;;;13.70;99.90;;;;;;5033218;28;20268;-79
2022/07/27 03:40:16;;;;;;;;;;;13.70;99.90;;;;;;5034391;28;19913;-79
2022/07/27 03:42:42;;;;;;;;;;;13.70;99.90;;;;;;5034749;28;19917;-79
2022/07/27 03:45:08;;;;;;;;;;;13.70;99.90;;;;;;5030885;28;19913;-78
2022/07/27 03:47:33;;;;;;;;;;;13.70;99.90;;;;;;5034228;28;19909;-78
2022/07/27 03:49:59;;;;;;;;;;;13.70;99.90;;;;;;5033440;28;20397;-79
2022/07/27 03:52:25;;;;;;;;;;;13.70;99.90;;;;;;5034090;28;19924;-78
2022/07/27 03:54:50;;;;;;;;;;;13.80;99.90;;;;;;5032716;28;20308;-79
2022/07/27 03:57:16;;;;;;;;;;;13.80;99.90;;;;;;5034821;28;19932;-78
2022/07/27 03:59:41;;;;;;;;;;;13.80;99.90;;;;;;5033245;28;19935;-81
2022/07/27 04:02:07;;;;;;;;;;;13.80;99.90;;;;;;5034221;28;19910;-78
2022/07/27 04:04:32;;;;;;;;;;;13.80;99.90;;;;;;5034883;28;19910;-80
2022/07/27 04:06:58;;;;;;;;;;;13.80;99.90;;;;;;5033708;28;20297;-79
2022/07/27 04:09:23;;;;;;;;;;;13.90;99.90;;;;;;5031944;28;20083;-81
2022/07/27 04:11:49;;;;;;;;;;;13.90;99.90;;;;;;5032844;28;19991;-80
2022/07/27 04:14:15;;;;;;;;;;;13.90;99.90;;;;;;5038730;28;20007;-81
2022/07/27 04:16:40;;;;;;;;;;;13.90;99.90;;;;;;5037898;28;19921;-81
2022/07/27 04:19:06;;;;;;;;;;;13.90;99.90;;;;;;5035316;28;19917;-79
2022/07/27 04:21:33;;;;;;;;;;;13.80;99.90;;;;;;5036376;28;19913;-80
2022/07/27 04:23:59;;;;;;;;;;;13.90;99.90;;;;;;5036093;28;19928;-79
2022/07/27 04:26:24;;;;;;;;;;;13.90;99.90;;;;;;5036259;28;19913;-81
2022/07/27 04:28:50;;;;;;;;;;;14.00;99.90;;;;;;5021454;28;19966;-80
2022/07/27 04:31:16;;;;;;;;;;;13.90;99.90;;;;;;5036092;28;19968;-80
2022/07/27 04:33:41;;;;;;;;;;;13.90;99.90;;;;;;5035327;28;20288;-78
2022/07/27 04:36:07;;;;;;;;;;;14.00;99.90;;;;;;5037100;28;19966;-80
2022/07/27 04:38:33;;;;;;;;;;;14.00;99.90;;;;;;5036816;28;19917;-80
2022/07/27 04:40:59;;;;;;;;;;;14.00;99.90;;;;;;5036655;28;20004;-81
2022/07/27 04:43:24;;;;;;;;;;;14.10;99.90;;;;;;5037417;28;20256;-80
2022/07/27 04:45:50;;;;;;;;;;;14.20;99.90;;;;;;5034641;28;19921;-80
2022/07/27 04:48:15;;;;;;;;;;;14.30;99.90;;;;;;5035627;28;19925;-80
2022/07/27 04:50:42;;;;;;;;;;;14.20;99.90;;;;;;5037120;28;19921;-80
2022/07/27 04:53:10;;;;;;;;;;;14.30;99.90;;;;;;5036577;28;19956;-81
2022/07/27 04:55:36;;;;;;;;;;;14.40;99.90;;;;;;5035553;28;19917;-81
2022/07/27 04:58:02;;;;;;;;;;;14.50;99.90;;;;;;5034956;28;20012;-81
2022/07/27 05:00:27;;;;;;;;;;;14.50;99.90;;;;;;5035110;28;20346;-81
2022/07/27 05:02:53;;;;;;;;;;;14.60;99.90;;;;;;5036191;28;19913;-84
2022/07/27 05:05:19;;;;;;;;;;;14.70;99.90;;;;;;5031155;28;19917;-82
2022/07/27 05:07:44;;;;;;;;;;;14.70;99.90;;;;;;5033765;28;20239;-86
2022/07/27 05:10:10;;;;;;;;;;;14.80;99.90;;;;;;5035044;28;19917;-77
2022/07/27 05:12:37;;;;;;;;;;;14.80;99.90;;;;;;5035425;28;19920;-80
2022/07/27 05:15:02;;;;;;;;;;;14.90;99.90;;;;;;5034285;28;19925;-80
2022/07/27 05:17:28;;;;;;;;;;;14.90;99.90;;;;;;5036588;28;19996;-79
2022/07/27 05:19:53;;;;;;;;;;;15.00;99.90;;;;;;5034786;28;20407;-82
2022/07/27 05:22:19;;;;;;;;;;;15.10;99.90;;;;;;5037363;28;19913;-79
2022/07/27 05:24:44;;;;;;;;;;;15.20;99.90;;;;;;5033086;28;19990;-81
2022/07/27 05:27:11;;;;;;;;;;;15.30;99.90;;;;;;5034145;28;20004;-81
2022/07/27 05:29:36;;;;;;;;;;;15.20;99.90;;;;;;5035289;28;19949;-81
2022/07/27 05:32:03;;;;;;;;;;;15.20;99.90;;;;;;5036787;28;19961;-83
2022/07/27 05:34:29;;;;;;;;;;;15.30;99.90;;;;;;5037067;28;19967;-83
2022/07/27 05:36:55;;;;;;;;;;;15.30;99.90;;;;;;5034156;28;19917;-84
2022/07/27 05:39:20;;;;;;;;;;;15.20;99.90;;;;;;5035449;28;19952;-82
2022/07/27 05:41:46;;;;;;;;;;;15.30;99.90;;;;;;5036053;28;20231;-80
2022/07/27 05:44:11;;;;;;;;;;;15.30;99.90;;;;;;5034422;28;20369;-84
2022/07/27 05:46:37;;;;;;;;;;;15.40;99.90;;;;;;5033176;28;20220;-80
2022/07/27 05:49:02;;;;;;;;;;;15.40;99.90;;;;;;5037072;28;19913;-81
2022/07/27 05:51:30;;;;;;;;;;;15.40;99.90;;;;;;5037662;28;20212;-75
2022/07/27 05:53:56;;;;;;;;;;;15.50;99.90;;;;;;5034834;28;19921;-82
2022/07/27 05:56:21;;;;;;;;;;;15.50;99.90;;;;;;5021853;28;19932;-78
2022/07/27 05:58:47;;;;;;;;;;;15.50;99.90;;;;;;5027404;28;20296;-79
2022/07/27 06:01:12;;;;;;;;;;;15.50;99.90;;;;;;5036402;28;20358;-80
2022/07/27 06:03:38;;;;;;;;;;;15.50;99.90;;;;;;5034685;28;19932;-77
2022/07/27 06:08:47;;;;;;;;;;;15.50;99.90;;;;;;5035837;28;19920;-80
2022/07/27 06:11:13;;;;;;;;;;;15.50;99.90;;;;;;5034564;28;19917;-81
2022/07/27 06:13:38;;;;;;;;;;;15.50;99.90;;;;;;5020524;28;20084;-79
2022/07/27 06:16:04;;;;;;;;;;;15.50;99.90;;;;;;5046226;28;19928;-80
2022/07/27 06:18:30;;;;;;;;;;;15.50;99.90;;;;;;5043580;28;19921;-79
2022/07/27 06:20:56;;;;;;;;;;;15.50;99.90;;;;;;5039756;28;19917;-78
2022/07/27 06:23:21;;;;;;;;;;;15.60;99.90;;;;;;5045252;28;19913;-86
2022/07/27 06:25:47;;;;;;;;;;;15.70;99.90;;;;;;5052397;28;19940;-78
2022/07/27 06:28:12;;;;;;;;;;;15.70;99.90;;;;;;5044434;28;20285;-81
2022/07/27 06:30:38;;;;;;;;;;;15.80;99.90;;;;;;5038709;28;20222;-78
2022/07/27 06:33:03;;;;;;;;;;;15.90;99.90;;;;;;5049030;28;20479;-81
2022/07/27 06:35:29;;;;;;;;;;;15.90;99.90;;;;;;5045762;28;20007;-85
2022/07/27 06:37:55;;;;;;;;;;;15.90;99.90;;;;;;5043747;28;19916;-83
2022/07/27 06:40:21;;;;;;;;;;;15.80;99.90;;;;;;5039994;28;19920;-80
2022/07/27 06:42:47;;;;;;;;;;;15.90;99.90;;;;;;5044090;28;19913;-79
2022/07/27 06:45:13;;;;;;;;;;;15.90;99.90;;;;;;5045816;28;19918;-78
2022/07/27 06:47:39;;;;;;;;;;;15.90;99.90;;;;;;5042635;28;19959;-81
2022/07/27 06:50:06;;;;;;;;;;;15.90;99.90;;;;;;5046002;28;19916;-78
2022/07/27 06:52:32;;;;;;;;;;;15.90;99.90;;;;;;5066327;28;19970;-81
2022/07/27 06:54:57;;;;;;;;;;;15.90;99.90;;;;;;5043428;28;20000;-80
2022/07/27 06:57:23;;;;;;;;;;;15.90;99.90;;;;;;5048512;28;19913;-80
2022/07/27 06:59:49;;;;;;;;;;;16.00;99.90;;;;;;5035327;28;19985;-78
2022/07/27 07:02:15;;;;;;;;;;;16.00;99.90;;;;;;5035066;28;19917;-82
2022/07/27 07:04:42;;;;;;;;;;;16.00;99.90;;;;;;5035647;28;19917;-79
2022/07/27 07:07:07;;;;;;;;;;;16.10;99.90;;;;;;5036537;28;20343;-80
2022/07/27 07:09:33;;;;;;;;;;;16.00;99.90;;;;;;5034314;28;19918;-79
2022/07/27 07:11:58;;;;;;;;;;;16.10;99.90;;;;;;5034443;28;20063;-78
2022/07/27 07:14:25;;;;;;;;;;;16.10;99.90;;;;;;5032499;28;19947;-81
2022/07/27 07:16:51;;;;;;;;;;;16.10;99.90;;;;;;5033269;28;19925;-80
2022/07/27 07:19:17;;;;;;;;;;;16.10;99.90;;;;;;5036102;28;20003;-76
2022/07/27 07:21:43;;;;;;;;;;;16.20;99.90;;;;;;5033113;28;19917;-78
2022/07/27 07:24:08;;;;;;;;;;;16.20;99.90;;;;;;5033540;28;19921;-78
2022/07/27 07:26:35;;;;;;;;;;;16.20;99.90;;;;;;5033675;28;19948;-80
2022/07/27 07:29:00;;;;;;;;;;;16.20;99.90;;;;;;5033729;28;19995;-78
2022/07/27 07:31:26;;;;;;;;;;;16.20;99.90;;;;;;5034123;28;20036;-78
2022/07/27 07:33:51;;;;;;;;;;;16.30;99.90;;;;;;5032269;28;20312;-81
2022/07/27 07:36:17;;;;;;;;;;;16.30;99.90;;;;;;5034433;28;19913;-74
2022/07/27 07:38:43;;;;;;;;;;;16.40;99.90;;;;;;5033055;28;19979;-78
2022/07/27 07:41:09;;;;;;;;;;;16.50;99.90;;;;;;5033979;28;20028;-75
2022/07/27 07:43:35;;;;;;;;;;;16.60;99.90;;;;;;5032248;28;19913;-80
2022/07/27 07:46:01;;;;;;;;;;;16.80;99.90;;;;;;5031750;28;20520;-82
2022/07/27 07:48:27;;;;;;;;;;;16.90;99.90;;;;;;5038101;28;19941;-79
2022/07/27 07:50:52;;;;;;;;;;;17.00;99.90;;;;;;5038217;28;20216;-78
2022/07/27 07:53:18;;;;;;;;;;;17.20;99.90;;;;;;5037566;28;20255;-77
2022/07/27 07:55:43;;;;;;;;;;;17.40;99.90;;;;;;5037527;28;20312;-81
2022/07/27 07:58:09;;;;;;;;;;;17.50;99.90;;;;;;5037530;28;19914;-77
2022/07/27 08:00:34;;;;;;;;;;;17.80;99.90;;;;;;5036187;28;19917;-86
2022/07/27 08:03:00;;;;;;;;;;;17.80;99.90;;;;;;5036589;28;19921;-76
2022/07/27 08:05:26;;;;;;;;;;;17.90;99.90;;;;;;5034737;28;19928;-80
2022/07/27 08:07:52;;;;;;;;;;;18.00;99.90;;;;;;5046263;28;19921;-85
2022/07/27 08:10:18;;;;;;;;;;;18.10;99.90;;;;;;5040603;28;19909;-83
2022/07/27 08:12:45;;;;;;;;;;;18.20;99.90;;;;;;5037801;28;19909;-81
2022/07/27 08:15:12;;;;;;;;;;;18.40;99.90;;;;;;5036639;28;20006;-84
2022/07/27 08:17:37;;;;;;;;;;;18.80;99.90;;;;;;5038561;28;19921;-84
2022/07/27 08:20:04;;;;;;;;;;;18.90;98.90;;;;;;5036825;28;19913;-82
2022/07/27 08:22:29;;;;;;;;;;;19.00;99.90;;;;;;5037651;28;19963;-78
2022/07/27 08:24:55;;;;;;;;;;;19.10;99.30;;;;;;5037395;28;20248;-79
2022/07/27 08:27:23;;;;;;;;;;;19.20;99.00;;;;;;5034545;28;20367;-80
2022/07/27 08:29:49;;;;;;;;;;;19.10;98.40;;;;;;5037788;28;19921;-82
2022/07/27 08:32:15;;;;;;;;;;;19.20;98.50;;;;;;5036709;28;20384;-77
2022/07/27 08:34:40;;;;;;;;;;;19.20;98.70;;;;;;5036496;28;19917;-81
2022/07/27 08:37:06;;;;;;;;;;;19.30;99.10;;;;;;5037462;28;20316;-78
2022/07/27 08:39:31;;;;;;;;;;;19.30;99.70;;;;;;5041358;28;20007;-84
2022/07/27 08:41:59;;;;;;;;;;;19.50;98.90;;;;;;5037727;28;19944;-84
2022/07/27 08:44:28;;;;;;;;;;;19.50;98.50;;;;;;5033418;28;19917;-85
2022/07/27 08:46:55;;;;;;;;;;;19.60;98.40;;;;;;5035276;28;19914;-78
2022/07/27 08:49:22;;;;;;;;;;;19.80;98.20;;;;;;5034983;28;19921;-76
2022/07/27 08:51:48;;;;;;;;;;;19.80;97.80;;;;;;5036689;28;20209;-78
2022/07/27 08:54:14;;;;;;;;;;;19.90;98.00;;;;;;5034718;28;20292;-80
2022/07/27 08:56:39;;;;;;;;;;;19.90;98.50;;;;;;5037418;28;19921;-81
2022/07/27 08:59:05;;;;;;;;;;;19.90;98.30;;;;;;5036891;28;19917;-86
2022/07/27 09:01:31;;;;;;;;;;;20.00;97.80;;;;;;5042340;28;19913;-76
2022/07/27 09:03:57;;;;;;;;;;;19.90;97.60;;;;;;5034550;28;19917;-83
2022/07/27 09:06:58;;;;;;;;;;;20.10;97.60;;;;;;5033996;28;19982;-80
2022/07/27 09:09:24;;;;;;;;;;;20.10;97.30;;;;;;4945077;29;20433;-82
2022/07/27 09:12:01;;;;;;;;;;;20.00;96.70;;;;;;4944453;29;20010;-83
2022/07/27 09:14:31;;;;;;;;;;;20.00;97.90;;;;;;4941282;28;19956;-78
2022/07/27 09:16:57;;;;;;;;;;;20.10;96.80;;;;;;4947103;28;19931;-77
2022/07/27 09:19:23;;;;;;;;;;;20.10;97.30;;;;;;4955575;28;19965;-79
2022/07/27 09:21:48;;;;;;;;;;;20.20;97.70;;;;;;4950784;29;19914;-76
2022/07/27 09:24:14;;;;;;;;;;;20.50;97.20;;;;;;4947789;28;20081;-77
2022/07/27 09:26:41;;;;;;;;;;;20.40;96.40;;;;;;4953675;28;19949;-78
2022/07/27 09:29:06;;;;;;;;;;;20.40;96.40;;;;;;4953032;29;19947;-80
2022/07/27 09:31:40;;;;;;;;;;;20.40;96.80;;;;;;4956837;29;19945;-77
2022/07/27 09:34:05;;;;;;;;;;;20.60;96.60;;;;;;4955569;28;19955;-76
2022/07/27 09:36:31;;;;;;;;;;;20.70;96.60;;;;;;4954757;28;19954;-80
2022/07/27 09:39:01;;;;;;;;;;;20.70;96.90;;;;;;4951080;28;20006;-81
2022/07/27 09:41:37;;;;;;;;;;;20.70;96.60;;;;;;4953067;28;20341;-78
2022/07/27 09:44:02;;;;;;;;;;;21.00;97.00;;;;;;5012661;28;19917;-78
2022/07/27 09:46:32;;;;;;;;;;;21.20;97.50;;;;;;5036511;28;19913;-75
2022/07/27 09:48:58;;;;;;;;;;;21.00;95.80;;;;;;5038653;28;19935;-78
2022/07/27 09:51:24;;;;;;;;;;;20.60;95.40;;;;;;5045057;28;19917;-79
2022/07/27 09:53:51;;;;;;;;;;;20.40;97.40;;;;;;5035364;28;19924;-76
2022/07/27 09:56:16;;;;;;;;;;;20.30;97.10;;;;;;5034252;28;19963;-77
2022/07/27 09:58:42;;;;;;;;;;;20.00;97.40;;;;;;5033083;28;19921;-79
2022/07/27 10:01:09;;;;;;;;;;;19.80;97.50;;;;;;5034570;28;19921;-82
2022/07/27 10:03:35;;;;;;;;;;;19.60;97.80;;;;;;5030799;28;20288;-80
2022/07/27 10:06:01;;;;;;;;;;;19.70;98.50;;;;;;5033369;28;19917;-78
2022/07/27 10:08:26;;;;;;;;;;;19.70;98.80;;;;;;5034142;28;19971;-77
2022/07/27 10:10:53;;;;;;;;;;;19.70;98.70;;;;;;5032802;28;19924;-80
2022/07/27 10:13:18;;;;;;;;;;;20.40;98.30;;;;;;5034924;28;19955;-79
2022/07/27 10:15:44;;;;;;;;;;;20.90;97.20;;;;;;5033340;28;19964;-81
2022/07/27 10:18:17;;;;;;;;;;;20.90;96.70;;;;;;5035144;28;19921;-82
2022/07/27 10:20:44;;;;;;;;;;;20.60;96.00;;;;;;5032805;28;20020;-80
2022/07/27 10:23:23;;;;;;;;;;;20.40;96.60;;;;;;5035247;28;19921;-83
2022/07/27 10:26:09;;;;;;;;;;;20.40;94.90;;;;;;5032868;28;20251;-78
2022/07/27 10:28:46;;;;;;;;;;;20.80;95.80;;;;;;5032433;28;20505;-75
2022/07/27 10:31:17;;;;;;;;;;;21.20;93.80;;;;;;5034623;28;19917;-78
2022/07/27 10:33:43;;;;;;;;;;;21.20;94.00;;;;;;5036565;28;20004;-79
2022/07/27 10:36:24;;;;;;;;;;;21.10;94.90;;;;;;5034663;28;19948;-75
2022/07/27 10:38:56;;;;;;;;;;;21.30;93.50;;;;;;5047766;28;19963;-81
2022/07/27 10:41:22;;;;;;;;;;;21.30;93.80;;;;;;5017292;28;20320;-78
2022/07/27 10:43:50;;;;;;;;;;;21.60;94.40;;;;;;5046541;28;20079;-79
2022/07/27 10:46:19;;;;;;;;;;;21.50;94.70;;;;;;5045861;28;19913;-77
2022/07/27 10:48:45;;;;;;;;;;;21.80;95.00;;;;;;5049088;28;19959;-78
2022/07/27 10:51:11;;;;;;;;;;;22.00;95.30;;;;;;5045964;28;19917;-76
2022/07/27 10:53:38;;;;;;;;;;;21.70;93.80;;;;;;5048610;28;20323;-78
2022/07/27 10:56:05;;;;;;;;;;;21.70;94.30;;;;;;5044511;28;19963;-78
2022/07/27 10:58:30;;;;;;;;;;;21.70;93.60;;;;;;5051146;28;19920;-77
2022/07/27 11:00:56;;;;;;;;;;;21.90;95.00;;;;;;5047874;28;19917;-79
2022/07/27 11:03:22;;;;;;;;;;;21.60;94.30;;;;;;5047881;28;19924;-80
2022/07/27 11:06:08;;;;;;;;;;;21.80;94.30;;;;;;5042025;28;19916;-80
2022/07/27 11:08:33;;;;;;;;;;;22.00;94.10;;;;;;5038206;28;19925;-81
2022/07/27 11:10:59;;;;;;;;;;;22.20;93.10;;;;;;5044224;28;20361;-80
2022/07/27 11:13:25;;;;;;;;;;;22.50;94.30;;;;;;5047401;28;19923;-79
2022/07/27 11:15:51;;;;;;;;;;;22.50;93.10;;;;;;5043426;28;19999;-79
2022/07/27 11:18:17;;;;;;;;;;;22.50;94.30;;;;;;5044972;28;19917;-78
2022/07/27 11:20:42;;;;;;;;;;;22.40;93.70;;;;;;5051474;28;20308;-77
2022/07/27 11:23:18;;;;;;;;;;;22.60;93.50;;;;;;5035875;28;19913;-80
2022/07/27 11:25:59;;;;;;;;;;;22.20;93.60;;;;;;5028488;28;19917;-78
2022/07/27 11:28:28;;;;;;;;;;;22.30;93.10;;;;;;5029523;28;20327;-80
2022/07/27 11:30:54;;;;;;;;;;;22.40;94.70;;;;;;5029042;28;19921;-78
2022/07/27 11:33:20;;;;;;;;;;;22.30;94.90;;;;;;5029705;28;19971;-78
2022/07/27 11:35:53;;;;;;;;;;;22.00;94.20;;;;;;5030622;28;19921;-77
2022/07/27 11:38:18;;;;;;;;;;;21.90;96.10;;;;;;5030301;28;19924;-78
2022/07/27 11:40:45;;;;;;;;;;;21.60;95.10;;;;;;5029764;28;19917;-81
2022/07/27 11:43:10;;;;;;;;;;;21.30;95.60;;;;;;5031636;28;19917;-81
2022/07/27 11:45:38;;;;;;;;;;;21.00;95.50;;;;;;5030935;28;19987;-77
2022/07/27 11:48:10;;;;;;;;;;;20.80;96.30;;;;;;5031381;28;19924;-79
2022/07/27 11:50:55;;;;;;;;;;;20.60;97.70;;;;;;5033295;28;20163;-79
2022/07/27 11:53:20;;;;;;;;;;;20.50;97.80;;;;;;5031327;28;19917;-75
2022/07/27 11:55:48;;;;;;;;;;;20.50;97.90;;;;;;5035481;28;20367;-78
2022/07/27 11:58:17;;;;;;;;;;;20.30;97.30;;;;;;5029921;28;19991;-78
2022/07/27 12:00:45;;;;;;;;;;;20.20;98.50;;;;;;5028603;28;20246;-76
2022/07/27 12:03:18;;;;;;;;;;;19.90;97.80;;;;;;5012975;28;19972;-77
2022/07/27 12:05:47;;;;;;;;;;;19.80;98.10;;;;;;5027471;28;19917;-81
2022/07/27 12:08:13;;;;;;;;;;;19.70;99.80;;;;;;5022476;28;20433;-81
2022/07/27 12:10:38;;;;;;;;;;;19.90;98.70;;;;;;5028195;28;19921;-80
2022/07/27 12:13:04;;;;;;;;;;;20.30;98.30;;;;;;5032012;28;20300;-77
2022/07/27 12:15:30;;;;;;;;;;;20.70;96.70;;;;;;5029595;28;19929;-79
2022/07/27 12:17:56;;;;;;;;;;;20.80;94.00;;;;;;5025727;28;19925;-79
2022/07/27 12:20:30;;;;;;;;;;;20.70;94.70;;;;;;5025274;28;19917;-80
2022/07/27 12:23:01;;;;;;;;;;;20.60;97.30;;;;;;5028975;28;20263;-78
2022/07/27 12:25:31;;;;;;;;;;;20.60;96.60;;;;;;5029146;28;19921;-79
2022/07/27 12:27:57;;;;;;;;;;;20.50;97.10;;;;;;5031780;28;20302;-76
2022/07/27 12:30:36;;;;;;;;;;;20.50;97.10;;;;;;5028323;28;19923;-75
2022/07/27 12:33:03;;;;;;;;;;;20.30;96.40;;;;;;5029996;28;19921;-79
2022/07/27 12:35:32;;;;;;;;;;;20.10;96.70;;;;;;5033871;28;19916;-79
2022/07/27 12:37:59;;;;;;;;;;;20.10;98.20;;;;;;5026234;28;19971;-78
2022/07/27 12:40:25;;;;;;;;;;;19.90;96.40;;;;;;5033700;28;20402;-81
2022/07/27 12:42:58;;;;;;;;;;;19.80;96.80;;;;;;5032792;28;19913;-77
2022/07/27 12:45:28;;;;;;;;;;;19.70;97.00;;;;;;5038556;28;20544;-78
2022/07/27 12:48:02;;;;;;;;;;;19.60;98.60;;;;;;5032095;28;19917;-80
2022/07/27 12:50:28;;;;;;;;;;;19.60;98.10;;;;;;5034142;28;19917;-78
2022/07/27 12:52:53;;;;;;;;;;;19.50;98.10;;;;;;5032258;28;19917;-79
2022/07/27 12:55:20;;;;;;;;;;;19.50;99.60;;;;;;5033682;28;20601;-80
2022/07/27 12:57:47;;;;;;;;;;;19.20;98.60;;;;;;5033188;28;20011;-80
2022/07/27 13:00:14;;;;;;;;;;;19.30;98.00;;;;;;5032073;28;21775;-81
2022/07/27 13:02:40;;;;;;;;;;;19.20;98.60;;;;;;5023228;28;19913;-80
2022/07/27 13:05:07;;;;;;;;;;;19.30;98.80;;;;;;5026356;28;19956;-78
2022/07/27 13:07:33;;;;;;;;;;;19.30;99.30;;;;;;5015297;28;19952;-78
2022/07/27 13:09:59;;;;;;;;;;;19.30;99.50;;;;;;5032741;28;19974;-78
2022/07/27 13:12:24;;;;;;;;;;;19.30;99.70;;;;;;5031509;28;19921;-75
2022/07/27 13:14:50;;;;;;;;;;;19.40;98.20;;;;;;5033846;28;19925;-78
2022/07/27 13:17:16;;;;;;;;;;;19.40;99.40;;;;;;5031384;28;19925;-79
2022/07/27 13:19:41;;;;;;;;;;;19.50;99.00;;;;;;5031245;28;19959;-76
2022/07/27 13:22:07;;;;;;;;;;;19.60;98.60;;;;;;5035310;28;19963;-76
2022/07/27 13:24:33;;;;;;;;;;;19.70;98.40;;;;;;5034847;28;20318;-76
2022/07/27 13:26:59;;;;;;;;;;;19.80;99.10;;;;;;5038218;28;19909;-79
2022/07/27 13:29:25;;;;;;;;;;;20.00;98.50;;;;;;5035573;28;20181;-78
2022/07/27 13:31:51;;;;;;;;;;;19.80;97.50;;;;;;5032389;28;19925;-75
2022/07/27 13:34:16;;;;;;;;;;;19.90;96.50;;;;;;5036061;28;19966;-78
2022/07/27 13:36:42;;;;;;;;;;;20.00;97.40;;;;;;5034959;28;19955;-78
2022/07/27 13:39:08;;;;;;;;;;;20.00;99.10;;;;;;5035324;28;20296;-78
2022/07/27 13:41:34;;;;;;;;;;;20.10;97.20;;;;;;5035709;28;19963;-78
2022/07/27 13:44:00;;;;;;;;;;;20.10;97.80;;;;;;5035273;28;19952;-76
2022/07/27 13:46:26;;;;;;;;;;;20.20;97.90;;;;;;5030828;28;19917;-78
2022/07/27 13:48:51;;;;;;;;;;;20.20;97.20;;;;;;5033901;28;19924;-75
2022/07/27 13:51:17;;;;;;;;;;;20.20;97.80;;;;;;5035057;28;19962;-76
2022/07/27 13:53:42;;;;;;;;;;;20.30;98.00;;;;;;5034521;28;19909;-76
2022/07/27 13:56:08;;;;;;;;;;;20.40;98.70;;;;;;5035721;28;19926;-77
2022/07/27 13:58:34;;;;;;;;;;;20.40;97.60;;;;;;5034609;28;20020;-76
2022/07/27 14:00:59;;;;;;;;;;;20.40;97.50;;;;;;5040993;28;20354;-76
2022/07/27 14:03:25;;;;;;;;;;;20.30;98.30;;;;;;5034349;28;19917;-79
2022/07/27 14:05:51;;;;;;;;;;;20.20;97.40;;;;;;5035389;28;19909;-77
2022/07/27 14:08:17;;;;;;;;;;;20.10;96.00;;;;;;5034284;28;20304;-74
2022/07/27 14:10:43;;;;;;;;;;;19.90;97.10;;;;;;5032246;28;19995;-82
2022/07/27 14:13:10;;;;;;;;;;;19.80;97.40;;;;;;5027071;28;20007;-75
2022/07/27 14:15:37;;;;;;;;;;;19.70;96.90;;;;;;5033727;28;19925;-74
2022/07/27 14:18:04;;;;;;;;;;;19.70;97.30;;;;;;5034307;28;19920;-79